Time;durP1;ratioP1;P1;durP2;ratioP2;P2;SDS_P1;SDS_P2;PMS_P1;PMS_P2;Temp;Humidity;BMP_temperature;BMP_pressure;BME280_temperature;BME280_humidity;BME280_pressure;Samples;Min_cycle;Max_cycle;Signal;HPM_P1;HPM_P2
2021/01/16 00:00:35;;;;;;;21.45;12.88;;;1.10;99.90;;;;;;5087702;28;20056;-62
2021/01/16 00:03:07;;;;;;;22.20;12.93;;;1.10;99.90;;;;;;5087767;28;20055;-63
2021/01/16 00:05:33;;;;;;;21.27;12.20;;;1.10;99.90;;;;;;5087584;28;20044;-62
2021/01/16 00:08:05;;;;;;;20.42;11.75;;;1.10;99.90;;;;;;5087871;28;20108;-61
2021/01/16 00:10:41;;;;;;;21.10;13.32;;;1.10;99.90;;;;;;5087498;28;20413;-62
2021/01/16 00:13:14;;;;;;;24.92;12.60;;;1.10;99.90;;;;;;5087445;28;20048;-62
2021/01/16 00:15:41;;;;;;;19.95;12.63;;;1.00;99.90;;;;;;5087407;28;20051;-62
2021/01/16 00:18:09;;;;;;;23.63;13.07;;;1.10;99.90;;;;;;5087442;28;20070;-63
2021/01/16 00:20:37;;;;;;;21.73;12.27;;;1.10;99.90;;;;;;5087520;28;20294;-62
2021/01/16 00:23:07;;;;;;;24.50;11.93;;;1.10;99.90;;;;;;5087324;28;20044;-63
2021/01/16 00:25:34;;;;;;;25.45;12.10;;;1.00;99.90;;;;;;5087529;28;20066;-62
2021/01/16 00:28:00;;;;;;;21.87;11.93;;;1.10;99.90;;;;;;5087165;28;20055;-63
2021/01/16 00:30:30;;;;;;;23.33;12.38;;;1.10;99.90;;;;;;5087089;28;20329;-63
2021/01/16 00:33:00;;;;;;;19.55;12.30;;;1.00;99.90;;;;;;5087286;28;20097;-63
2021/01/16 00:35:28;;;;;;;20.75;12.35;;;1.10;99.90;;;;;;5086975;28;20490;-62
2021/01/16 00:37:54;;;;;;;22.67;11.93;;;1.00;99.90;;;;;;5087032;28;20048;-63
2021/01/16 00:40:26;;;;;;;16.95;11.07;;;1.10;99.90;;;;;;5087019;28;20045;-62
2021/01/16 00:42:56;;;;;;;19.50;11.55;;;1.10;99.90;;;;;;5086375;28;20056;-62
2021/01/16 00:45:23;;;;;;;23.92;12.75;;;1.10;99.90;;;;;;5086717;28;20095;-62
2021/01/16 00:47:50;;;;;;;19.20;10.97;;;1.10;99.90;;;;;;5086776;28;20094;-62
2021/01/16 00:50:21;;;;;;;17.25;10.90;;;1.10;99.90;;;;;;5086802;28;20098;-62
2021/01/16 00:52:58;;;;;;;22.52;12.90;;;1.10;99.90;;;;;;5086800;28;20101;-62
2021/01/16 00:55:24;;;;;;;25.25;12.93;;;1.10;99.90;;;;;;5085782;28;20047;-62
2021/01/16 00:57:54;;;;;;;22.38;12.93;;;1.10;99.90;;;;;;5086614;28;20044;-62
2021/01/16 01:00:22;;;;;;;23.63;13.27;;;1.10;99.90;;;;;;5086386;28;20074;-62
2021/01/16 01:02:48;;;;;;;22.80;11.40;;;1.10;99.90;;;;;;5086291;28;20048;-62
2021/01/16 01:05:16;;;;;;;21.30;13.32;;;1.10;99.90;;;;;;5086554;28;20037;-62
2021/01/16 01:07:46;;;;;;;21.70;12.27;;;1.10;99.90;;;;;;5086359;28;20114;-63
2021/01/16 01:10:13;;;;;;;24.25;11.93;;;1.10;99.90;;;;;;5086315;28;20115;-62
2021/01/16 01:12:39;;;;;;;24.73;14.07;;;1.10;99.90;;;;;;5086490;28;20052;-62
2021/01/16 01:15:07;;;;;;;22.90;12.05;;;1.00;99.90;;;;;;5086393;28;20040;-62
2021/01/16 01:17:33;;;;;;;23.80;13.90;;;1.00;99.90;;;;;;5086199;28;20415;-62
2021/01/16 01:19:58;;;;;;;33.35;14.48;;;1.00;99.90;;;;;;5086378;28;20044;-62
2021/01/16 01:22:30;;;;;;;20.73;12.88;;;1.00;99.90;;;;;;5086195;28;20040;-62
2021/01/16 01:24:57;;;;;;;22.27;13.07;;;1.00;99.90;;;;;;5086154;28;20052;-62
2021/01/16 01:27:23;;;;;;;26.15;14.65;;;1.00;99.90;;;;;;5086357;28;20090;-62
2021/01/16 01:29:49;;;;;;;21.27;12.50;;;1.00;99.90;;;;;;5086067;28;20044;-62
2021/01/16 01:32:14;;;;;;;25.33;14.07;;;1.00;99.90;;;;;;5086184;28;20458;-62
2021/01/16 01:34:40;;;;;;;25.25;14.10;;;1.10;99.90;;;;;;5085968;28;20048;-62
2021/01/16 01:37:06;;;;;;;22.40;11.77;;;1.00;99.90;;;;;;5086076;28;20044;-62
2021/01/16 01:39:31;;;;;;;21.00;13.07;;;1.00;99.90;;;;;;5086309;28;20037;-62
2021/01/16 01:41:57;;;;;;;22.10;13.77;;;1.00;99.90;;;;;;5086017;28;20037;-62
2021/01/16 01:44:23;;;;;;;22.15;13.13;;;1.00;99.90;;;;;;5085923;28;20079;-61
2021/01/16 01:46:49;;;;;;;22.35;13.10;;;1.00;99.90;;;;;;5085791;28;20055;-63
2021/01/16 01:49:14;;;;;;;21.50;12.48;;;1.00;99.90;;;;;;5085945;28;20044;-61
2021/01/16 01:51:43;;;;;;;22.85;13.25;;;1.00;99.90;;;;;;5085934;28;20155;-62
2021/01/16 01:54:10;;;;;;;22.13;13.32;;;1.00;99.90;;;;;;5086374;28;20060;-62
2021/01/16 01:56:38;;;;;;;24.48;14.63;;;1.00;99.90;;;;;;5085897;28;20055;-62
2021/01/16 01:59:06;;;;;;;23.65;14.18;;;1.00;99.90;;;;;;5085988;28;20064;-62
2021/01/16 02:01:38;;;;;;;25.20;13.60;;;1.00;99.90;;;;;;5085739;28;20066;-62
2021/01/16 02:04:05;;;;;;;23.20;14.10;;;1.00;99.90;;;;;;5085733;28;20047;-62
2021/01/16 02:06:31;;;;;;;23.65;12.60;;;1.00;99.90;;;;;;5087802;28;20052;-62
2021/01/16 02:08:57;;;;;;;23.38;14.25;;;1.00;99.90;;;;;;5090053;28;20062;-62
2021/01/16 02:11:24;;;;;;;23.20;12.98;;;1.00;99.90;;;;;;5089905;28;20404;-62
2021/01/16 02:13:49;;;;;;;30.67;13.70;;;1.00;99.90;;;;;;5089678;28;20045;-62
2021/01/16 02:16:31;;;;;;;23.92;13.93;;;1.00;99.90;;;;;;5089767;28;20051;-62
2021/01/16 02:18:57;;;;;;;22.27;14.18;;;1.00;99.90;;;;;;5089806;28;20056;-62
2021/01/16 02:21:25;;;;;;;23.27;14.05;;;1.00;99.90;;;;;;5089619;28;20127;-62
2021/01/16 02:24:04;;;;;;;24.60;14.65;;;0.90;99.90;;;;;;5089987;28;20055;-62
2021/01/16 02:26:51;;;;;;;22.80;14.25;;;0.90;99.90;;;;;;5089797;28;20040;-62
2021/01/16 02:29:18;;;;;;;25.58;15.40;;;0.90;99.90;;;;;;5089609;28;20055;-62
2021/01/16 02:32:03;;;;;;;22.63;13.73;;;0.90;99.90;;;;;;5089488;28;20097;-62
2021/01/16 02:34:33;;;;;;;24.77;14.02;;;0.90;99.90;;;;;;5089415;28;20093;-62
2021/01/16 02:37:32;;;;;;;25.23;15.00;;;0.90;99.90;;;;;;5089439;28;20068;-62
2021/01/16 02:40:08;;;;;;;31.67;15.15;;;0.90;99.90;;;;;;5089262;28;20044;-61
2021/01/16 02:42:52;;;;;;;23.58;14.65;;;0.90;99.90;;;;;;5089024;28;20068;-62
2021/01/16 02:45:33;;;;;;;23.65;14.75;;;0.90;99.90;;;;;;5089391;28;20122;-62
2021/01/16 02:48:24;;;;;;;27.83;13.85;;;0.90;99.90;;;;;;5088908;28;20041;-62
2021/01/16 02:50:54;;;;;;;23.92;14.88;;;0.90;99.90;;;;;;5089214;28;20057;-62
2021/01/16 02:53:22;;;;;;;28.42;15.43;;;0.90;99.90;;;;;;5089274;28;20049;-63
2021/01/16 02:55:49;;;;;;;25.73;15.07;;;0.90;99.90;;;;;;5088919;28;20058;-63
2021/01/16 02:58:16;;;;;;;26.83;15.60;;;0.90;99.90;;;;;;5088978;28;20100;-62
2021/01/16 03:00:42;;;;;;;25.73;14.48;;;0.90;99.90;;;;;;5088899;28;20318;-63
2021/01/16 03:03:08;;;;;;;29.27;15.82;;;0.90;99.90;;;;;;5088777;28;20040;-63
2021/01/16 03:05:34;;;;;;;23.98;14.65;;;0.90;99.90;;;;;;5088799;28;20075;-63
2021/01/16 03:08:02;;;;;;;25.65;15.25;;;0.90;99.90;;;;;;5088817;28;20052;-63
2021/01/16 03:10:31;;;;;;;31.25;15.90;;;1.00;99.90;;;;;;5088620;28;20047;-61
2021/01/16 03:12:57;;;;;;;22.95;13.63;;;0.90;99.90;;;;;;5088794;28;20041;-62
2021/01/16 03:15:23;;;;;;;24.75;14.25;;;0.90;99.90;;;;;;5088842;28;20537;-62
2021/01/16 03:17:54;;;;;;;25.92;14.63;;;0.90;99.90;;;;;;5087325;28;20132;-62
2021/01/16 03:20:28;;;;;;;28.52;15.00;;;0.90;99.90;;;;;;5088720;28;20044;-63
2021/01/16 03:22:56;;;;;;;26.40;15.02;;;0.90;99.90;;;;;;5088711;28;20118;-62
2021/01/16 03:25:24;;;;;;;30.10;17.10;;;0.90;99.90;;;;;;5088752;28;20045;-62
2021/01/16 03:27:50;;;;;;;27.17;12.85;;;0.90;99.90;;;;;;5088323;28;20049;-62
2021/01/16 03:30:17;;;;;;;30.65;17.00;;;0.90;99.90;;;;;;5088294;28;20091;-62
2021/01/16 03:32:44;;;;;;;33.08;16.98;;;0.90;99.90;;;;;;5088493;28;20574;-62
2021/01/16 03:35:11;;;;;;;26.80;15.93;;;0.90;99.90;;;;;;5088485;28;20049;-61
2021/01/16 03:37:37;;;;;;;26.63;15.25;;;0.90;99.90;;;;;;5088251;28;20036;-62
2021/01/16 03:40:08;;;;;;;28.15;15.98;;;0.90;99.90;;;;;;5088417;28;20067;-62
2021/01/16 03:42:35;;;;;;;30.40;16.38;;;0.90;99.90;;;;;;5087996;28;20064;-62
2021/01/16 03:45:06;;;;;;;30.70;15.57;;;0.90;99.90;;;;;;5088183;28;20060;-62
2021/01/16 03:47:32;;;;;;;26.33;14.75;;;0.90;99.90;;;;;;5087908;28;20049;-63
2021/01/16 03:49:58;;;;;;;25.23;14.13;;;0.90;99.90;;;;;;5088176;28;20113;-64
2021/01/16 03:52:29;;;;;;;31.30;16.92;;;0.90;99.90;;;;;;5087807;28;20048;-62
2021/01/16 03:54:55;;;;;;;30.10;16.52;;;0.90;99.90;;;;;;5088191;28;20044;-62
2021/01/16 03:57:23;;;;;;;26.88;15.52;;;0.90;99.90;;;;;;5087757;28;20067;-62
2021/01/16 03:59:48;;;;;;;28.58;15.88;;;0.90;99.90;;;;;;5087971;28;20048;-62
2021/01/16 04:02:14;;;;;;;27.63;16.08;;;0.90;99.90;;;;;;5087800;28;20096;-62
2021/01/16 04:04:40;;;;;;;25.48;14.40;;;0.90;99.90;;;;;;5087836;28;20468;-62
2021/01/16 04:07:07;;;;;;;29.13;16.75;;;0.90;99.90;;;;;;5087916;28;20043;-62
2021/01/16 04:09:33;;;;;;;31.85;16.77;;;0.90;99.90;;;;;;5087586;28;20040;-62
2021/01/16 04:12:00;;;;;;;29.13;16.20;;;0.90;99.90;;;;;;5087375;28;20055;-61
2021/01/16 04:14:25;;;;;;;29.17;15.65;;;0.90;99.90;;;;;;5087676;28;20044;-62
2021/01/16 04:16:51;;;;;;;26.55;15.32;;;0.90;99.90;;;;;;5087598;28;20071;-62
2021/01/16 04:19:17;;;;;;;28.23;16.70;;;0.90;99.90;;;;;;5087377;28;20069;-62
2021/01/16 04:21:43;;;;;;;26.30;15.55;;;0.90;99.90;;;;;;5087526;28;20045;-62
2021/01/16 04:24:09;;;;;;;27.10;15.95;;;0.90;99.90;;;;;;5087407;28;20044;-63
2021/01/16 04:26:34;;;;;;;26.88;15.85;;;0.90;99.90;;;;;;5087115;28;20498;-61
2021/01/16 04:29:00;;;;;;;28.83;15.93;;;0.90;99.90;;;;;;5087151;28;20036;-62
2021/01/16 04:31:26;;;;;;;38.05;17.25;;;0.90;99.90;;;;;;5087109;28;20056;-61
2021/01/16 04:33:51;;;;;;;27.77;16.23;;;0.90;99.90;;;;;;5087284;28;20052;-61
2021/01/16 04:36:17;;;;;;;28.65;16.00;;;0.80;99.90;;;;;;5087349;28;20120;-61
2021/01/16 04:38:43;;;;;;;28.00;16.15;;;0.80;99.90;;;;;;5087097;28;20116;-61
2021/01/16 04:41:09;;;;;;;27.48;15.52;;;0.80;99.90;;;;;;5087013;28;20488;-61
2021/01/16 04:43:35;;;;;;;27.13;15.70;;;0.90;99.90;;;;;;5086830;28;20053;-61
2021/01/16 04:46:06;;;;;;;26.88;15.70;;;0.80;99.90;;;;;;5087057;28;20044;-62
2021/01/16 04:48:36;;;;;;;29.02;16.17;;;0.80;99.90;;;;;;5086886;28;20129;-61
2021/01/16 04:51:05;;;;;;;28.52;16.80;;;0.80;99.90;;;;;;5086846;28;20048;-62
2021/01/16 04:53:41;;;;;;;26.25;15.55;;;0.80;99.90;;;;;;5086790;28;20044;-61
2021/01/16 04:56:11;;;;;;;21.92;14.13;;;0.80;99.90;;;;;;5086666;28;20048;-62
2021/01/16 04:58:39;;;;;;;29.73;16.42;;;0.90;99.90;;;;;;5086749;28;20045;-61
2021/01/16 05:01:07;;;;;;;27.65;15.75;;;0.80;99.90;;;;;;5086478;28;20074;-61
2021/01/16 05:03:42;;;;;;;31.90;17.48;;;0.80;99.90;;;;;;5086602;28;20040;-62
2021/01/16 05:06:13;;;;;;;30.10;16.33;;;0.80;99.90;;;;;;5086749;28;20044;-62
2021/01/16 05:08:41;;;;;;;26.80;15.68;;;0.80;99.90;;;;;;5086619;28;20105;-62
2021/01/16 05:11:27;;;;;;;25.58;16.63;;;0.80;99.90;;;;;;5086205;28;20044;-62
2021/01/16 05:14:17;;;;;;;29.50;15.60;;;0.80;99.90;;;;;;5086308;28;20435;-62
2021/01/16 05:16:44;;;;;;;27.95;16.42;;;0.80;99.90;;;;;;5086167;28;20041;-61
2021/01/16 05:19:17;;;;;;;31.15;16.25;;;0.80;99.90;;;;;;5086295;28;20044;-62
2021/01/16 05:21:43;;;;;;;22.63;14.18;;;0.80;99.90;;;;;;5086197;28;20048;-62
2021/01/16 05:24:14;;;;;;;22.67;14.25;;;0.80;99.90;;;;;;5086450;28;20052;-62
2021/01/16 05:27:02;;;;;;;26.67;15.77;;;0.90;99.90;;;;;;5086326;28;20480;-62
2021/01/16 05:29:29;;;;;;;24.63;14.45;;;0.90;99.90;;;;;;5086504;28;20052;-62
2021/01/16 05:31:57;;;;;;;26.10;15.70;;;0.90;99.90;;;;;;5086199;28;20045;-62
2021/01/16 05:34:24;;;;;;;27.95;16.05;;;0.90;99.90;;;;;;5086281;28;20045;-62
2021/01/16 05:36:51;;;;;;;25.08;15.52;;;0.90;99.90;;;;;;5086166;28;20048;-62
2021/01/16 05:39:18;;;;;;;26.58;16.42;;;0.90;99.90;;;;;;5086055;28;20055;-62
2021/01/16 05:41:45;;;;;;;28.08;16.70;;;0.90;99.90;;;;;;5085381;28;20052;-62
2021/01/16 05:44:11;;;;;;;25.42;15.85;;;0.90;99.90;;;;;;5086026;28;20064;-62
2021/01/16 05:46:42;;;;;;;29.50;16.42;;;0.90;99.90;;;;;;5085857;28;20041;-62
2021/01/16 05:49:12;;;;;;;28.15;17.10;;;0.80;99.90;;;;;;5085844;28;20044;-62
2021/01/16 05:51:38;;;;;;;24.58;14.32;;;0.90;99.90;;;;;;5085765;28;20040;-62
2021/01/16 05:54:04;;;;;;;25.00;14.65;;;0.80;99.90;;;;;;5085729;28;20075;-61
2021/01/16 05:56:31;;;;;;;23.52;14.40;;;0.80;99.90;;;;;;5085704;28;20442;-61
2021/01/16 05:58:59;;;;;;;23.48;14.45;;;0.80;99.90;;;;;;5086116;28;20040;-62
2021/01/16 06:01:25;;;;;;;27.42;16.15;;;0.80;99.90;;;;;;5085760;28;20070;-61
2021/01/16 06:03:57;;;;;;;24.58;15.02;;;0.80;99.90;;;;;;5085827;28;20041;-62
2021/01/16 06:06:23;;;;;;;31.77;15.52;;;0.80;99.90;;;;;;5085770;28;20082;-63
2021/01/16 06:08:56;;;;;;;22.67;14.23;;;0.80;99.90;;;;;;5085815;28;20048;-62
2021/01/16 06:11:22;;;;;;;24.48;14.38;;;0.80;99.90;;;;;;5085780;28;20407;-62
2021/01/16 06:13:50;;;;;;;23.95;13.43;;;0.80;99.90;;;;;;5085737;28;20041;-62
2021/01/16 06:16:22;;;;;;;27.70;14.95;;;0.80;99.90;;;;;;5085766;28;20075;-62
2021/01/16 06:18:54;;;;;;;22.65;13.63;;;0.80;99.90;;;;;;5085466;28;20044;-62
2021/01/16 06:21:28;;;;;;;28.40;14.38;;;0.90;99.90;;;;;;5085400;28;20064;-62
2021/01/16 06:23:56;;;;;;;23.52;14.75;;;0.80;99.90;;;;;;5085428;28;20053;-61
2021/01/16 06:26:23;;;;;;;22.20;12.73;;;0.90;99.90;;;;;;5085375;28;20077;-61
2021/01/16 06:29:02;;;;;;;23.27;14.13;;;0.90;99.90;;;;;;5085649;28;20117;-62
2021/01/16 06:31:32;;;;;;;23.75;14.25;;;0.90;99.90;;;;;;5085612;28;20094;-62
2021/01/16 06:34:06;;;;;;;25.35;15.10;;;0.90;99.90;;;;;;5085711;28;20045;-61
2021/01/16 06:36:37;;;;;;;21.52;12.80;;;0.90;99.90;;;;;;5085350;28;20075;-62
2021/01/16 06:39:09;;;;;;;24.00;13.52;;;0.90;99.90;;;;;;5085537;28;20056;-61
2021/01/16 06:41:37;;;;;;;22.05;12.98;;;0.90;99.90;;;;;;5085490;28;20100;-62
2021/01/16 06:44:23;;;;;;;;;;;0.90;99.90;;;;;;5085676;28;20066;-62
2021/01/16 06:46:50;;;;;;;22.27;13.57;;;0.90;99.90;;;;;;5085148;28;19973;-62
2021/01/16 06:49:19;;;;;;;28.30;14.73;;;0.90;99.90;;;;;;5085369;28;20484;-62
2021/01/16 06:51:45;;;;;;;20.88;12.55;;;0.90;99.90;;;;;;5086281;28;20045;-62
2021/01/16 06:54:11;;;;;;;21.67;12.82;;;0.90;99.90;;;;;;5089041;28;20096;-61
2021/01/16 06:56:40;;;;;;;21.25;12.18;;;0.90;99.90;;;;;;5089092;28;20041;-61
2021/01/16 06:59:13;;;;;;;25.77;13.70;;;0.90;99.90;;;;;;5088909;28;20068;-63
2021/01/16 07:01:41;;;;;;;21.08;12.25;;;0.90;99.90;;;;;;5088937;28;20060;-62
2021/01/16 07:04:12;;;;;;;21.38;12.68;;;0.90;99.90;;;;;;5088874;28;20469;-62
2021/01/16 07:06:45;;;;;;;19.73;11.07;;;0.90;99.90;;;;;;5088940;28;20044;-63
2021/01/16 07:09:23;;;;;;;20.27;10.80;;;0.90;99.90;;;;;;5088827;28;20040;-62
2021/01/16 07:11:53;;;;;;;19.00;11.93;;;0.90;99.90;;;;;;5088606;28;20048;-62
2021/01/16 07:14:20;;;;;;;18.23;10.20;;;1.00;99.90;;;;;;5088786;28;20045;-63
2021/01/16 07:16:49;;;;;;;18.45;10.93;;;1.00;99.90;;;;;;5088760;28;20041;-62
2021/01/16 07:19:23;;;;;;;18.58;11.20;;;1.00;99.90;;;;;;5088637;28;20047;-62
2021/01/16 07:21:49;;;;;;;17.80;10.68;;;1.00;99.90;;;;;;5088602;28;20044;-62
2021/01/16 07:24:18;;;;;;;17.77;11.43;;;1.10;99.90;;;;;;5088487;28;20040;-62
2021/01/16 07:26:47;;;;;;;18.50;10.75;;;1.00;99.90;;;;;;5088245;28;20051;-62
2021/01/16 07:29:14;;;;;;;18.02;9.95;;;1.00;99.90;;;;;;5088335;28;20050;-62
2021/01/16 07:31:45;;;;;;;17.47;10.30;;;1.00;99.90;;;;;;5088323;28;20051;-62
2021/01/16 07:34:11;;;;;;;14.77;9.13;;;1.00;99.90;;;;;;5088154;28;20484;-62
2021/01/16 07:36:38;;;;;;;13.30;8.95;;;1.10;99.90;;;;;;5088151;28;20044;-62
2021/01/16 07:39:06;;;;;;;13.15;8.18;;;1.10;99.90;;;;;;5088303;28;20052;-62
2021/01/16 07:41:34;;;;;;;12.02;7.45;;;1.20;99.90;;;;;;5088101;28;20051;-63
2021/01/16 07:44:04;;;;;;;;;;;1.20;99.90;;;;;;5088577;28;20139;-64
2021/01/16 07:46:31;;;;;;;12.65;7.43;;;1.30;99.90;;;;;;5088120;28;19955;-63
2021/01/16 07:48:59;;;;;;;13.57;7.70;;;1.40;99.90;;;;;;5088021;28;20040;-63
2021/01/16 07:51:38;;;;;;;14.93;8.25;;;1.40;99.90;;;;;;5087960;28;20052;-63
2021/01/16 07:54:11;;;;;;;16.65;8.05;;;1.40;99.90;;;;;;5088014;28;20046;-63
2021/01/16 07:56:40;;;;;;;12.07;7.13;;;1.40;99.90;;;;;;5088089;28;20044;-66
2021/01/16 07:59:15;;;;;;;11.77;7.95;;;1.40;99.90;;;;;;5086684;28;20044;-62
2021/01/16 08:01:49;;;;;;;13.35;7.97;;;1.40;99.90;;;;;;5087831;28;20051;-62
2021/01/16 08:04:37;;;;;;;13.60;8.40;;;1.40;99.40;;;;;;5087235;28;20073;-63
2021/01/16 08:07:08;;;;;;;13.60;9.07;;;1.40;99.70;;;;;;5087608;28;20052;-66
2021/01/16 08:09:50;;;;;;;16.27;10.05;;;1.40;99.90;;;;;;5087708;28;20048;-62
2021/01/16 08:12:17;;;;;;;16.60;10.57;;;1.40;99.90;;;;;;5087648;28;20052;-63
2021/01/16 08:14:43;;;;;;;20.73;12.00;;;1.30;99.90;;;;;;5087608;28;20124;-64
2021/01/16 08:17:41;;;;;;;18.50;10.32;;;1.20;99.90;;;;;;5087710;28;20123;-62
2021/01/16 08:20:27;;;;;;;15.48;10.55;;;1.30;99.90;;;;;;5064961;28;20053;-63
2021/01/16 08:22:57;;;;;;;20.83;11.70;;;1.30;99.90;;;;;;5065199;28;20095;-62
2021/01/16 08:25:28;;;;;;;19.00;11.05;;;1.30;99.90;;;;;;5065200;28;20143;-63
2021/01/16 08:27:56;;;;;;;16.85;10.82;;;1.40;99.90;;;;;;5065126;28;20049;-66
2021/01/16 08:30:24;;;;;;;19.90;11.90;;;1.40;99.90;;;;;;5065075;28;20061;-62
2021/01/16 08:33:06;;;;;;;20.00;13.18;;;1.40;99.90;;;;;;5065004;28;20049;-62
2021/01/16 08:35:45;;;;;;;20.25;12.57;;;1.40;99.90;;;;;;5064952;28;20132;-62
2021/01/16 08:38:17;;;;;;;23.50;13.00;;;1.50;99.90;;;;;;5065195;28;20498;-62
2021/01/16 08:40:50;;;;;;;18.75;12.00;;;1.50;99.90;;;;;;5065085;28;20087;-63
2021/01/16 08:43:44;;;;;;;22.48;13.15;;;1.50;99.90;;;;;;5064728;28;20114;-63
2021/01/16 08:46:17;;;;;;;25.40;12.95;;;1.50;99.90;;;;;;5064741;28;20045;-63
2021/01/16 08:49:01;;;;;;;24.10;15.10;;;1.50;99.90;;;;;;5064636;28;20044;-66
2021/01/16 08:51:30;;;;;;;18.42;12.68;;;1.60;99.90;;;;;;5064781;28;20105;-66
2021/01/16 08:54:05;;;;;;;23.55;13.15;;;1.60;99.90;;;;;;5064725;28;20064;-62
2021/01/16 08:56:31;;;;;;;18.80;11.75;;;1.60;99.90;;;;;;5075844;28;20064;-62
2021/01/16 08:58:57;;;;;;;25.77;15.68;;;1.60;99.90;;;;;;5086743;28;20049;-62
2021/01/16 09:01:24;;;;;;;18.58;11.85;;;1.60;99.90;;;;;;5086633;28;20423;-63
2021/01/16 09:04:20;;;;;;;21.70;13.80;;;1.70;99.90;;;;;;5086632;28;20064;-62
2021/01/16 09:06:46;;;;;;;23.67;12.60;;;1.70;99.90;;;;;;5086365;28;20056;-63
2021/01/16 09:09:14;;;;;;;20.75;12.85;;;1.70;99.90;;;;;;5086417;28;20488;-62
2021/01/16 09:11:40;;;;;;;21.02;12.23;;;1.70;99.90;;;;;;5086400;28;20052;-62
2021/01/16 09:14:06;;;;;;;19.92;12.73;;;1.80;99.90;;;;;;5086386;28;20052;-62
2021/01/16 09:16:37;;;;;;;17.75;11.30;;;1.90;99.90;;;;;;5085480;28;20051;-63
2021/01/16 09:19:04;;;;;;;18.00;11.02;;;1.80;99.90;;;;;;5086391;28;20040;-63
2021/01/16 09:21:30;;;;;;;17.58;12.00;;;1.90;99.90;;;;;;5086158;28;20048;-62
2021/01/16 09:23:56;;;;;;;19.67;12.02;;;1.80;99.90;;;;;;5086152;28;20040;-63
2021/01/16 09:26:25;;;;;;;20.70;13.15;;;1.80;99.90;;;;;;5086312;28;20055;-63
2021/01/16 09:29:01;;;;;;;21.77;13.23;;;1.80;99.90;;;;;;5086293;28;20059;-63
2021/01/16 09:31:31;;;;;;;21.60;10.95;;;1.80;99.90;;;;;;5086018;28;20116;-63
2021/01/16 09:34:06;;;;;;;19.52;12.13;;;1.80;99.90;;;;;;5086346;28;20048;-63
2021/01/16 09:36:38;;;;;;;21.70;13.18;;;1.80;99.90;;;;;;5086071;28;20049;-62
2021/01/16 09:39:06;;;;;;;19.65;12.93;;;1.80;99.90;;;;;;5086045;28;20431;-63
2021/01/16 09:41:35;;;;;;;20.17;12.85;;;1.90;99.90;;;;;;5086004;28;20381;-63
2021/01/16 09:44:04;;;;;;;28.10;14.73;;;1.80;99.90;;;;;;5085941;28;20060;-63
2021/01/16 09:46:35;;;;;;;18.98;12.68;;;1.90;99.90;;;;;;5085826;28;20055;-63
2021/01/16 09:49:04;;;;;;;24.05;13.15;;;1.90;99.90;;;;;;5085887;28;20048;-63
2021/01/16 09:51:33;;;;;;;22.98;12.95;;;1.90;99.90;;;;;;5085965;28;20127;-63
2021/01/16 09:54:12;;;;;;;20.08;13.68;;;1.80;99.90;;;;;;5085883;28;20044;-63
2021/01/16 09:56:48;;;;;;;24.05;12.77;;;1.80;99.90;;;;;;5085951;28;20037;-62
2021/01/16 09:59:21;;;;;;;25.08;13.38;;;1.80;99.90;;;;;;5085784;28;20048;-64
2021/01/16 10:02:11;;;;;;;25.30;15.13;;;1.80;99.90;;;;;;5085892;28;20044;-63
2021/01/16 10:04:44;;;;;;;22.58;12.77;;;1.80;99.90;;;;;;5085796;28;20044;-63
2021/01/16 10:07:10;;;;;;;21.88;13.23;;;1.80;99.90;;;;;;5085883;28;20109;-62
2021/01/16 10:09:50;;;;;;;23.00;14.40;;;1.80;99.90;;;;;;5085631;28;20052;-63
2021/01/16 10:12:34;;;;;;;26.30;15.55;;;1.80;99.90;;;;;;5085989;28;20051;-63
2021/01/16 10:15:03;;;;;;;23.67;14.35;;;1.80;99.90;;;;;;5085914;28;20052;-63
2021/01/16 10:17:32;;;;;;;21.70;13.48;;;1.80;99.90;;;;;;5085447;28;20047;-63
2021/01/16 10:20:07;;;;;;;25.33;15.25;;;1.80;99.90;;;;;;5085523;28;20044;-63
2021/01/16 10:22:34;;;;;;;26.65;15.55;;;1.80;99.90;;;;;;5085671;28;20105;-63
2021/01/16 10:25:01;;;;;;;27.02;15.90;;;1.80;99.90;;;;;;5085869;28;20045;-63
2021/01/16 10:27:47;;;;;;;24.02;14.75;;;1.80;99.90;;;;;;5087439;28;20048;-63
2021/01/16 10:30:56;;;;;;;26.42;16.80;;;1.70;99.90;;;;;;5089462;28;20051;-62
2021/01/16 10:33:22;;;;;;;28.13;16.20;;;1.70;99.90;;;;;;5089468;28;20068;-62
2021/01/16 10:36:05;;;;;;;25.80;16.00;;;1.70;99.90;;;;;;5089755;28;20040;-67
2021/01/16 10:38:42;;;;;;;30.35;18.50;;;1.80;99.90;;;;;;5089687;28;20071;-65
2021/01/16 10:41:13;;;;;;;27.55;16.33;;;1.70;99.90;;;;;;5089219;28;20040;-65
2021/01/16 10:43:40;;;;;;;26.23;15.40;;;1.80;99.90;;;;;;5089199;28;20121;-64
2021/01/16 10:46:10;;;;;;;24.95;16.25;;;1.80;99.90;;;;;;5089306;28;20051;-65
2021/01/16 10:48:38;;;;;;;22.95;15.77;;;1.70;99.90;;;;;;5088914;28;20063;-65
2021/01/16 10:51:09;;;;;;;26.02;16.58;;;1.80;99.90;;;;;;5089134;28;20154;-65
2021/01/16 10:53:37;;;;;;;27.70;16.70;;;1.80;99.90;;;;;;5089076;28;20051;-65
2021/01/16 10:56:23;;;;;;;28.92;17.27;;;1.80;99.90;;;;;;5089099;28;20048;-65
2021/01/16 10:58:49;;;;;;;30.17;16.00;;;1.80;99.90;;;;;;5088928;28;20040;-66
2021/01/16 11:01:45;;;;;;;21.65;13.50;;;1.80;99.90;;;;;;5088899;28;20052;-66
2021/01/16 11:04:19;;;;;;;28.92;16.60;;;1.80;99.90;;;;;;5088982;28;20048;-66
2021/01/16 11:06:49;;;;;;;28.58;15.77;;;1.80;99.90;;;;;;5088682;28;20086;-65
2021/01/16 11:09:33;;;;;;;24.83;16.58;;;1.80;99.90;;;;;;5088906;28;20051;-66
2021/01/16 11:12:00;;;;;;;28.40;15.30;;;1.70;99.90;;;;;;5088755;28;20072;-65
2021/01/16 11:14:35;;;;;;;25.63;15.27;;;1.70;99.90;;;;;;5088783;28;20411;-65
2021/01/16 11:17:03;;;;;;;29.63;17.05;;;1.70;99.90;;;;;;5088940;28;20104;-65
2021/01/16 11:19:35;;;;;;;34.20;17.80;;;1.70;99.90;;;;;;5088589;28;20044;-65
2021/01/16 11:22:12;;;;;;;23.95;15.65;;;1.70;99.90;;;;;;5088516;28;20047;-65
2021/01/16 11:24:53;;;;;;;23.88;16.20;;;1.70;99.90;;;;;;5088450;28;20044;-65
2021/01/16 11:27:27;;;;;;;25.83;16.65;;;1.70;99.90;;;;;;5088233;28;20507;-65
2021/01/16 11:30:20;;;;;;;23.80;14.57;;;1.70;99.90;;;;;;5087297;28;20101;-65
2021/01/16 11:32:50;;;;;;;22.60;15.13;;;1.70;99.90;;;;;;5085459;28;20052;-65
2021/01/16 11:35:15;;;;;;;27.65;16.55;;;1.70;99.90;;;;;;5088344;28;20040;-65
2021/01/16 11:37:51;;;;;;;26.98;15.85;;;1.80;99.90;;;;;;5088162;28;20048;-65
2021/01/16 11:40:28;;;;;;;26.48;16.85;;;1.80;99.90;;;;;;5087734;28;20134;-65
2021/01/16 11:42:55;;;;;;;24.45;15.43;;;1.80;99.90;;;;;;5088032;28;20056;-64
2021/01/16 11:45:25;;;;;;;23.70;16.05;;;1.80;99.90;;;;;;5088181;28;20053;-66
2021/01/16 11:47:54;;;;;;;21.48;13.90;;;1.80;99.90;;;;;;5087806;28;20080;-64
2021/01/16 11:50:20;;;;;;;;;;;1.90;99.90;;;;;;5088496;28;20052;-65
2021/01/16 11:52:47;;;;;;;21.17;14.07;;;1.90;99.90;;;;;;5088007;28;19924;-64
2021/01/16 11:55:13;;;;;;;20.10;13.45;;;1.90;99.90;;;;;;5088242;28;20052;-64
2021/01/16 11:57:41;;;;;;;21.75;13.70;;;1.80;99.90;;;;;;5087838;28;20051;-64
2021/01/16 12:00:08;;;;;;;22.55;13.32;;;1.90;99.90;;;;;;5087732;28;20052;-64
2021/01/16 12:02:34;;;;;;;22.02;14.45;;;1.90;99.90;;;;;;5087961;28;20045;-64
2021/01/16 12:05:00;;;;;;;22.10;13.70;;;1.90;99.90;;;;;;5088108;28;20071;-64
2021/01/16 12:07:26;;;;;;;25.23;14.05;;;1.90;99.90;;;;;;5087997;28;20048;-64
2021/01/16 12:09:55;;;;;;;21.60;13.20;;;1.90;99.90;;;;;;5087948;28;20041;-65
2021/01/16 12:12:30;;;;;;;24.40;13.13;;;1.90;99.90;;;;;;5087462;28;20041;-64
2021/01/16 12:14:56;;;;;;;22.13;14.90;;;1.90;99.90;;;;;;5087602;28;20130;-64
2021/01/16 12:17:22;;;;;;;20.55;14.05;;;1.90;99.90;;;;;;5076685;28;20041;-64
2021/01/16 12:19:50;;;;;;;21.80;13.43;;;1.90;99.90;;;;;;5077120;28;20045;-64
2021/01/16 12:22:21;;;;;;;22.02;13.63;;;1.90;99.90;;;;;;5085888;28;20041;-64
2021/01/16 12:24:47;;;;;;;23.52;13.20;;;2.00;99.90;;;;;;5075392;28;20052;-64
2021/01/16 12:27:13;;;;;;;23.73;13.82;;;2.00;99.90;;;;;;5067530;28;20051;-64
2021/01/16 12:29:47;;;;;;;19.58;12.93;;;2.00;99.90;;;;;;5077632;28;20185;-64
2021/01/16 12:32:14;;;;;;;26.30;15.13;;;2.00;99.90;;;;;;5071456;28;20068;-64
2021/01/16 12:34:51;;;;;;;19.75;12.82;;;2.00;99.90;;;;;;5075456;28;20052;-65
2021/01/16 12:37:44;;;;;;;21.63;14.43;;;2.00;99.90;;;;;;5073156;28;20037;-64
2021/01/16 12:40:17;;;;;;;22.98;14.13;;;2.00;99.90;;;;;;5067754;28;20060;-65
2021/01/16 12:42:44;;;;;;;22.10;14.15;;;2.10;99.90;;;;;;5066860;28;20045;-64
2021/01/16 12:45:11;;;;;;;27.30;14.13;;;2.00;99.90;;;;;;5067260;28;20045;-64
2021/01/16 12:47:39;;;;;;;21.15;13.45;;;2.10;99.90;;;;;;5066732;28;20049;-63
2021/01/16 12:50:09;;;;;;;21.58;13.55;;;2.10;99.90;;;;;;5066885;28;20116;-64
2021/01/16 12:52:36;;;;;;;18.63;12.43;;;2.10;99.90;;;;;;5066853;28;20049;-64
2021/01/16 12:55:10;;;;;;;23.02;13.65;;;2.10;99.90;;;;;;5067013;28;20065;-64